sensor_id;sensor_type;location;lat;lon;timestamp;P1;durP1;ratioP1;P2;durP2;ratioP2
35993;SDS011;22066;54.274;18.578;2023-03-01T00:02:06;9.13;;;3.40;;
35993;SDS011;22066;54.274;18.578;2023-03-01T00:04:32;9.13;;;3.83;;
35993;SDS011;22066;54.274;18.578;2023-03-01T00:07:00;10.57;;;2.92;;
35993;SDS011;22066;54.274;18.578;2023-03-01T00:09:26;9.57;;;3.27;;
35993;SDS011;22066;54.274;18.578;2023-03-01T00:11:52;10.33;;;3.77;;
35993;SDS011;22066;54.274;18.578;2023-03-01T00:14:18;13.37;;;3.00;;
35993;SDS011;22066;54.274;18.578;2023-03-01T00:16:45;8.97;;;3.07;;
35993;SDS011;22066;54.274;18.578;2023-03-01T00:19:20;8.70;;;3.40;;
35993;SDS011;22066;54.274;18.578;2023-03-01T00:21:47;8.30;;;2.93;;
35993;SDS011;22066;54.274;18.578;2023-03-01T00:24:13;8.60;;;2.97;;
35993;SDS011;22066;54.274;18.578;2023-03-01T00:26:39;13.27;;;3.50;;
35993;SDS011;22066;54.274;18.578;2023-03-01T00:29:05;8.40;;;3.10;;
35993;SDS011;22066;54.274;18.578;2023-03-01T00:31:32;8.67;;;3.23;;
35993;SDS011;22066;54.274;18.578;2023-03-01T00:34:00;13.17;;;3.80;;
35993;SDS011;22066;54.274;18.578;2023-03-01T00:36:27;9.77;;;3.35;;
35993;SDS011;22066;54.274;18.578;2023-03-01T00:38:54;10.10;;;3.38;;
35993;SDS011;22066;54.274;18.578;2023-03-01T00:41:20;14.93;;;3.83;;
35993;SDS011;22066;54.274;18.578;2023-03-01T00:43:53;12.00;;;3.57;;
35993;SDS011;22066;54.274;18.578;2023-03-01T00:46:20;7.87;;;3.33;;
35993;SDS011;22066;54.274;18.578;2023-03-01T00:48:46;15.02;;;3.85;;
35993;SDS011;22066;54.274;18.578;2023-03-01T00:51:20;10.27;;;3.73;;
35993;SDS011;22066;54.274;18.578;2023-03-01T00:53:46;11.67;;;3.87;;
35993;SDS011;22066;54.274;18.578;2023-03-01T00:56:13;12.77;;;3.30;;
35993;SDS011;22066;54.274;18.578;2023-03-01T00:58:40;8.60;;;3.03;;
35993;SDS011;22066;54.274;18.578;2023-03-01T01:01:07;13.13;;;4.10;;
35993;SDS011;22066;54.274;18.578;2023-03-01T01:03:42;9.43;;;4.07;;
35993;SDS011;22066;54.274;18.578;2023-03-01T01:06:12;13.40;;;3.63;;
35993;SDS011;22066;54.274;18.578;2023-03-01T01:08:38;11.90;;;3.53;;
35993;SDS011;22066;54.274;18.578;2023-03-01T01:11:04;11.40;;;3.73;;
35993;SDS011;22066;54.274;18.578;2023-03-01T01:13:30;11.83;;;3.50;;
35993;SDS011;22066;54.274;18.578;2023-03-01T01:16:00;9.00;;;3.00;;
35993;SDS011;22066;54.274;18.578;2023-03-01T01:18:26;8.83;;;3.63;;
35993;SDS011;22066;54.274;18.578;2023-03-01T01:20:52;9.17;;;3.47;;
35993;SDS011;22066;54.274;18.578;2023-03-01T01:23:18;10.50;;;3.40;;
35993;SDS011;22066;54.274;18.578;2023-03-01T01:25:44;9.40;;;3.30;;
35993;SDS011;22066;54.274;18.578;2023-03-01T01:28:10;11.87;;;3.90;;
35993;SDS011;22066;54.274;18.578;2023-03-01T01:30:36;12.20;;;3.83;;
35993;SDS011;22066;54.274;18.578;2023-03-01T01:33:02;11.40;;;3.90;;
35993;SDS011;22066;54.274;18.578;2023-03-01T01:35:28;12.20;;;4.47;;
35993;SDS011;22066;54.274;18.578;2023-03-01T01:37:54;10.53;;;3.43;;
35993;SDS011;22066;54.274;18.578;2023-03-01T01:40:20;12.83;;;4.37;;
35993;SDS011;22066;54.274;18.578;2023-03-01T01:42:46;10.77;;;3.40;;
35993;SDS011;22066;54.274;18.578;2023-03-01T01:45:32;14.20;;;3.30;;
35993;SDS011;22066;54.274;18.578;2023-03-01T01:48:01;8.83;;;3.50;;
35993;SDS011;22066;54.274;18.578;2023-03-01T01:50:28;8.47;;;3.33;;
35993;SDS011;22066;54.274;18.578;2023-03-01T01:53:02;8.57;;;3.57;;
35993;SDS011;22066;54.274;18.578;2023-03-01T01:55:30;7.85;;;2.38;;
35993;SDS011;22066;54.274;18.578;2023-03-01T01:57:58;10.83;;;3.70;;
35993;SDS011;22066;54.274;18.578;2023-03-01T02:02:58;7.77;;;3.03;;
35993;SDS011;22066;54.274;18.578;2023-03-01T02:08:03;10.73;;;3.45;;
35993;SDS011;22066;54.274;18.578;2023-03-01T02:10:29;12.73;;;3.50;;
35993;SDS011;22066;54.274;18.578;2023-03-01T02:12:58;11.47;;;3.80;;
35993;SDS011;22066;54.274;18.578;2023-03-01T02:15:24;8.97;;;4.10;;
35993;SDS011;22066;54.274;18.578;2023-03-01T02:17:51;10.20;;;4.23;;
35993;SDS011;22066;54.274;18.578;2023-03-01T02:20:34;10.77;;;3.60;;
35993;SDS011;22066;54.274;18.578;2023-03-01T02:23:03;8.67;;;3.33;;
35993;SDS011;22066;54.274;18.578;2023-03-01T02:30:25;12.27;;;4.90;;
35993;SDS011;22066;54.274;18.578;2023-03-01T02:32:52;10.17;;;3.87;;
35993;SDS011;22066;54.274;18.578;2023-03-01T02:35:19;7.93;;;3.60;;
35993;SDS011;22066;54.274;18.578;2023-03-01T02:37:45;10.97;;;3.47;;
35993;SDS011;22066;54.274;18.578;2023-03-01T02:40:16;9.00;;;3.90;;
35993;SDS011;22066;54.274;18.578;2023-03-01T02:42:53;10.70;;;4.47;;
35993;SDS011;22066;54.274;18.578;2023-03-01T02:45:20;6.47;;;2.30;;
35993;SDS011;22066;54.274;18.578;2023-03-01T02:47:46;12.87;;;3.87;;
35993;SDS011;22066;54.274;18.578;2023-03-01T02:50:22;12.10;;;4.10;;
35993;SDS011;22066;54.274;18.578;2023-03-01T02:53:10;15.05;;;4.90;;
35993;SDS011;22066;54.274;18.578;2023-03-01T02:55:36;9.70;;;3.90;;
35993;SDS011;22066;54.274;18.578;2023-03-01T02:58:03;9.50;;;3.70;;
35993;SDS011;22066;54.274;18.578;2023-03-01T03:00:31;13.50;;;5.23;;
35993;SDS011;22066;54.274;18.578;2023-03-01T03:02:59;9.50;;;4.17;;
35993;SDS011;22066;54.274;18.578;2023-03-01T03:05:26;13.67;;;5.30;;
35993;SDS011;22066;54.274;18.578;2023-03-01T03:07:53;11.90;;;4.37;;
35993;SDS011;22066;54.274;18.578;2023-03-01T03:10:23;10.83;;;4.90;;
35993;SDS011;22066;54.274;18.578;2023-03-01T03:12:50;13.57;;;4.60;;
35993;SDS011;22066;54.274;18.578;2023-03-01T03:15:17;11.40;;;4.57;;
35993;SDS011;22066;54.274;18.578;2023-03-01T03:17:43;12.53;;;4.87;;
35993;SDS011;22066;54.274;18.578;2023-03-01T03:20:10;17.57;;;5.20;;
35993;SDS011;22066;54.274;18.578;2023-03-01T03:22:40;12.60;;;5.10;;
35993;SDS011;22066;54.274;18.578;2023-03-01T03:25:07;12.10;;;5.23;;
35993;SDS011;22066;54.274;18.578;2023-03-01T03:27:36;15.50;;;5.73;;
35993;SDS011;22066;54.274;18.578;2023-03-01T03:30:03;13.17;;;5.17;;
35993;SDS011;22066;54.274;18.578;2023-03-01T03:33:08;14.90;;;5.33;;
35993;SDS011;22066;54.274;18.578;2023-03-01T03:35:38;17.90;;;5.77;;
35993;SDS011;22066;54.274;18.578;2023-03-01T03:38:05;12.20;;;5.33;;
35993;SDS011;22066;54.274;18.578;2023-03-01T03:40:40;13.33;;;6.13;;
35993;SDS011;22066;54.274;18.578;2023-03-01T03:43:07;16.77;;;5.67;;
35993;SDS011;22066;54.274;18.578;2023-03-01T03:45:33;12.33;;;4.90;;
35993;SDS011;22066;54.274;18.578;2023-03-01T03:48:00;14.00;;;6.10;;
35993;SDS011;22066;54.274;18.578;2023-03-01T03:50:26;12.97;;;5.07;;
35993;SDS011;22066;54.274;18.578;2023-03-01T03:52:53;15.33;;;5.10;;
35993;SDS011;22066;54.274;18.578;2023-03-01T03:55:19;17.53;;;6.30;;
35993;SDS011;22066;54.274;18.578;2023-03-01T03:57:45;18.07;;;6.73;;
35993;SDS011;22066;54.274;18.578;2023-03-01T04:00:17;15.07;;;6.07;;
35993;SDS011;22066;54.274;18.578;2023-03-01T04:02:44;17.35;;;6.97;;
35993;SDS011;22066;54.274;18.578;2023-03-01T04:05:11;15.90;;;6.27;;
35993;SDS011;22066;54.274;18.578;2023-03-01T04:07:38;15.23;;;4.97;;
35993;SDS011;22066;54.274;18.578;2023-03-01T04:10:04;12.57;;;5.47;;
35993;SDS011;22066;54.274;18.578;2023-03-01T04:12:31;12.23;;;4.20;;
35993;SDS011;22066;54.274;18.578;2023-03-01T04:14:59;19.10;;;7.23;;
35993;SDS011;22066;54.274;18.578;2023-03-01T04:17:25;20.30;;;8.97;;
35993;SDS011;22066;54.274;18.578;2023-03-01T04:19:51;18.27;;;7.13;;
35993;SDS011;22066;54.274;18.578;2023-03-01T04:22:18;17.03;;;5.73;;
35993;SDS011;22066;54.274;18.578;2023-03-01T04:24:44;14.73;;;5.90;;
35993;SDS011;22066;54.274;18.578;2023-03-01T04:27:10;16.47;;;6.00;;
35993;SDS011;22066;54.274;18.578;2023-03-01T04:29:37;17.50;;;5.97;;
35993;SDS011;22066;54.274;18.578;2023-03-01T04:32:03;16.20;;;5.73;;
35993;SDS011;22066;54.274;18.578;2023-03-01T04:34:29;18.70;;;7.80;;
35993;SDS011;22066;54.274;18.578;2023-03-01T04:36:55;20.77;;;6.70;;
35993;SDS011;22066;54.274;18.578;2023-03-01T04:39:22;19.43;;;6.60;;
35993;SDS011;22066;54.274;18.578;2023-03-01T04:41:48;19.57;;;6.60;;
35993;SDS011;22066;54.274;18.578;2023-03-01T04:44:14;19.13;;;8.27;;
35993;SDS011;22066;54.274;18.578;2023-03-01T04:46:40;18.77;;;7.90;;
35993;SDS011;22066;54.274;18.578;2023-03-01T04:49:06;14.80;;;6.07;;
35993;SDS011;22066;54.274;18.578;2023-03-01T04:51:32;16.93;;;6.33;;
35993;SDS011;22066;54.274;18.578;2023-03-01T04:53:58;15.80;;;6.13;;
35993;SDS011;22066;54.274;18.578;2023-03-01T04:56:25;21.57;;;7.00;;
35993;SDS011;22066;54.274;18.578;2023-03-01T04:58:53;22.53;;;6.63;;
35993;SDS011;22066;54.274;18.578;2023-03-01T05:01:19;16.00;;;5.95;;
35993;SDS011;22066;54.274;18.578;2023-03-01T05:03:47;23.27;;;7.90;;
35993;SDS011;22066;54.274;18.578;2023-03-01T05:06:14;19.90;;;6.63;;
35993;SDS011;22066;54.274;18.578;2023-03-01T05:08:40;23.23;;;7.83;;
35993;SDS011;22066;54.274;18.578;2023-03-01T05:11:07;15.67;;;7.33;;
35993;SDS011;22066;54.274;18.578;2023-03-01T05:13:36;16.20;;;5.93;;
35993;SDS011;22066;54.274;18.578;2023-03-01T05:16:03;18.30;;;6.43;;
35993;SDS011;22066;54.274;18.578;2023-03-01T05:18:30;21.03;;;6.20;;
35993;SDS011;22066;54.274;18.578;2023-03-01T05:21:04;17.90;;;6.37;;
35993;SDS011;22066;54.274;18.578;2023-03-01T05:23:31;22.23;;;6.73;;
35993;SDS011;22066;54.274;18.578;2023-03-01T05:26:01;19.33;;;6.93;;
35993;SDS011;22066;54.274;18.578;2023-03-01T05:28:29;23.10;;;7.17;;
35993;SDS011;22066;54.274;18.578;2023-03-01T05:30:55;21.87;;;8.50;;
35993;SDS011;22066;54.274;18.578;2023-03-01T05:33:21;16.33;;;6.90;;
35993;SDS011;22066;54.274;18.578;2023-03-01T05:35:48;22.23;;;7.23;;
35993;SDS011;22066;54.274;18.578;2023-03-01T05:38:14;21.97;;;8.13;;
35993;SDS011;22066;54.274;18.578;2023-03-01T05:40:41;25.43;;;8.17;;
35993;SDS011;22066;54.274;18.578;2023-03-01T05:43:08;15.43;;;5.35;;
35993;SDS011;22066;54.274;18.578;2023-03-01T05:45:35;24.20;;;8.33;;
35993;SDS011;22066;54.274;18.578;2023-03-01T05:48:01;17.00;;;6.63;;
35993;SDS011;22066;54.274;18.578;2023-03-01T05:50:28;21.43;;;7.43;;
35993;SDS011;22066;54.274;18.578;2023-03-01T05:52:59;22.37;;;7.37;;
35993;SDS011;22066;54.274;18.578;2023-03-01T05:55:26;18.00;;;6.97;;
35993;SDS011;22066;54.274;18.578;2023-03-01T05:57:52;19.07;;;7.20;;
35993;SDS011;22066;54.274;18.578;2023-03-01T06:00:18;17.90;;;6.43;;
35993;SDS011;22066;54.274;18.578;2023-03-01T06:02:45;22.40;;;8.17;;
35993;SDS011;22066;54.274;18.578;2023-03-01T06:05:12;20.30;;;7.60;;
35993;SDS011;22066;54.274;18.578;2023-03-01T06:07:38;18.90;;;6.40;;
35993;SDS011;22066;54.274;18.578;2023-03-01T06:10:05;15.83;;;6.63;;
35993;SDS011;22066;54.274;18.578;2023-03-01T06:12:32;22.50;;;8.30;;
35993;SDS011;22066;54.274;18.578;2023-03-01T06:14:58;20.93;;;7.03;;
35993;SDS011;22066;54.274;18.578;2023-03-01T06:17:24;18.37;;;7.43;;
35993;SDS011;22066;54.274;18.578;2023-03-01T06:19:50;23.27;;;7.60;;
35993;SDS011;22066;54.274;18.578;2023-03-01T06:22:16;19.43;;;6.90;;
35993;SDS011;22066;54.274;18.578;2023-03-01T06:24:42;20.43;;;7.63;;
35993;SDS011;22066;54.274;18.578;2023-03-01T06:27:08;23.00;;;7.80;;
35993;SDS011;22066;54.274;18.578;2023-03-01T06:29:34;27.80;;;7.47;;
35993;SDS011;22066;54.274;18.578;2023-03-01T06:32:01;21.60;;;7.97;;
35993;SDS011;22066;54.274;18.578;2023-03-01T06:34:27;20.10;;;7.90;;
35993;SDS011;22066;54.274;18.578;2023-03-01T06:36:53;20.90;;;7.37;;
35993;SDS011;22066;54.274;18.578;2023-03-01T06:39:19;24.70;;;8.13;;
35993;SDS011;22066;54.274;18.578;2023-03-01T06:41:45;25.40;;;7.87;;
35993;SDS011;22066;54.274;18.578;2023-03-01T06:44:11;23.13;;;8.60;;
35993;SDS011;22066;54.274;18.578;2023-03-01T06:46:38;37.27;;;11.23;;
35993;SDS011;22066;54.274;18.578;2023-03-01T06:49:05;31.13;;;8.90;;
35993;SDS011;22066;54.274;18.578;2023-03-01T06:51:34;37.30;;;10.83;;
35993;SDS011;22066;54.274;18.578;2023-03-01T06:54:00;52.10;;;12.27;;
35993;SDS011;22066;54.274;18.578;2023-03-01T06:56:26;33.53;;;12.50;;
35993;SDS011;22066;54.274;18.578;2023-03-01T06:58:52;24.93;;;8.13;;
35993;SDS011;22066;54.274;18.578;2023-03-01T07:01:18;16.83;;;6.57;;
35993;SDS011;22066;54.274;18.578;2023-03-01T07:03:44;17.03;;;7.10;;
35993;SDS011;22066;54.274;18.578;2023-03-01T07:06:11;20.40;;;7.67;;
35993;SDS011;22066;54.274;18.578;2023-03-01T07:08:37;14.10;;;6.53;;
35993;SDS011;22066;54.274;18.578;2023-03-01T07:11:03;18.43;;;7.07;;
35993;SDS011;22066;54.274;18.578;2023-03-01T07:13:29;20.43;;;6.27;;
35993;SDS011;22066;54.274;18.578;2023-03-01T07:15:55;15.40;;;6.67;;
35993;SDS011;22066;54.274;18.578;2023-03-01T07:18:21;18.17;;;7.17;;
35993;SDS011;22066;54.274;18.578;2023-03-01T07:20:47;15.40;;;6.80;;
35993;SDS011;22066;54.274;18.578;2023-03-01T07:23:13;15.70;;;6.63;;
35993;SDS011;22066;54.274;18.578;2023-03-01T07:25:40;16.30;;;6.83;;
35993;SDS011;22066;54.274;18.578;2023-03-01T07:28:06;13.10;;;5.43;;
35993;SDS011;22066;54.274;18.578;2023-03-01T07:30:32;16.87;;;6.53;;
35993;SDS011;22066;54.274;18.578;2023-03-01T07:32:58;15.37;;;6.30;;
35993;SDS011;22066;54.274;18.578;2023-03-01T07:35:25;15.33;;;6.50;;
35993;SDS011;22066;54.274;18.578;2023-03-01T07:37:51;16.83;;;7.30;;
35993;SDS011;22066;54.274;18.578;2023-03-01T07:40:17;12.50;;;5.43;;
35993;SDS011;22066;54.274;18.578;2023-03-01T07:42:43;14.43;;;6.15;;
35993;SDS011;22066;54.274;18.578;2023-03-01T07:45:10;13.85;;;5.72;;
35993;SDS011;22066;54.274;18.578;2023-03-01T07:47:36;16.30;;;7.00;;
35993;SDS011;22066;54.274;18.578;2023-03-01T07:50:02;13.93;;;7.20;;
35993;SDS011;22066;54.274;18.578;2023-03-01T07:52:29;16.20;;;7.28;;
35993;SDS011;22066;54.274;18.578;2023-03-01T07:54:55;13.93;;;5.93;;
35993;SDS011;22066;54.274;18.578;2023-03-01T07:57:22;11.18;;;5.40;;
35993;SDS011;22066;54.274;18.578;2023-03-01T07:59:48;15.88;;;7.60;;
35993;SDS011;22066;54.274;18.578;2023-03-01T08:02:14;16.02;;;7.18;;
35993;SDS011;22066;54.274;18.578;2023-03-01T08:04:40;14.88;;;7.00;;
35993;SDS011;22066;54.274;18.578;2023-03-01T08:07:07;15.60;;;6.72;;
35993;SDS011;22066;54.274;18.578;2023-03-01T08:09:36;15.93;;;6.70;;
35993;SDS011;22066;54.274;18.578;2023-03-01T08:12:02;16.45;;;7.25;;
35993;SDS011;22066;54.274;18.578;2023-03-01T08:14:29;14.93;;;6.57;;
35993;SDS011;22066;54.274;18.578;2023-03-01T08:16:55;12.85;;;6.07;;
35993;SDS011;22066;54.274;18.578;2023-03-01T08:19:22;16.38;;;7.53;;
35993;SDS011;22066;54.274;18.578;2023-03-01T08:21:49;13.85;;;7.07;;
35993;SDS011;22066;54.274;18.578;2023-03-01T08:24:15;12.90;;;6.57;;
35993;SDS011;22066;54.274;18.578;2023-03-01T08:26:41;15.75;;;6.55;;
35993;SDS011;22066;54.274;18.578;2023-03-01T08:29:07;12.00;;;5.85;;
35993;SDS011;22066;54.274;18.578;2023-03-01T08:31:37;14.20;;;6.70;;
35993;SDS011;22066;54.274;18.578;2023-03-01T08:34:05;12.93;;;6.22;;
35993;SDS011;22066;54.274;18.578;2023-03-01T08:36:32;11.70;;;5.77;;
35993;SDS011;22066;54.274;18.578;2023-03-01T08:38:58;13.85;;;6.57;;
35993;SDS011;22066;54.274;18.578;2023-03-01T08:41:25;12.70;;;6.07;;
35993;SDS011;22066;54.274;18.578;2023-03-01T08:43:51;13.48;;;6.15;;
35993;SDS011;22066;54.274;18.578;2023-03-01T08:46:17;13.48;;;6.30;;
35993;SDS011;22066;54.274;18.578;2023-03-01T08:48:44;13.07;;;6.90;;
35993;SDS011;22066;54.274;18.578;2023-03-01T08:51:14;11.73;;;5.90;;
35993;SDS011;22066;54.274;18.578;2023-03-01T08:53:40;12.52;;;6.22;;
35993;SDS011;22066;54.274;18.578;2023-03-01T08:56:07;12.80;;;7.43;;
35993;SDS011;22066;54.274;18.578;2023-03-01T08:58:33;11.63;;;5.43;;
35993;SDS011;22066;54.274;18.578;2023-03-01T09:00:59;15.75;;;6.35;;
35993;SDS011;22066;54.274;18.578;2023-03-01T09:03:25;12.60;;;6.75;;
35993;SDS011;22066;54.274;18.578;2023-03-01T09:05:52;13.45;;;6.43;;
35993;SDS011;22066;54.274;18.578;2023-03-01T09:08:18;10.93;;;5.93;;
35993;SDS011;22066;54.274;18.578;2023-03-01T09:10:44;10.88;;;6.05;;
35993;SDS011;22066;54.274;18.578;2023-03-01T09:13:11;10.80;;;6.35;;
35993;SDS011;22066;54.274;18.578;2023-03-01T09:15:37;10.27;;;5.45;;
35993;SDS011;22066;54.274;18.578;2023-03-01T09:18:03;12.00;;;6.65;;
35993;SDS011;22066;54.274;18.578;2023-03-01T09:20:30;12.38;;;7.22;;
35993;SDS011;22066;54.274;18.578;2023-03-01T09:22:56;12.10;;;6.30;;
35993;SDS011;22066;54.274;18.578;2023-03-01T09:25:23;12.00;;;7.20;;
35993;SDS011;22066;54.274;18.578;2023-03-01T09:27:55;10.23;;;6.47;;
35993;SDS011;22066;54.274;18.578;2023-03-01T09:30:21;11.43;;;6.57;;
35993;SDS011;22066;54.274;18.578;2023-03-01T09:32:47;13.77;;;7.15;;
35993;SDS011;22066;54.274;18.578;2023-03-01T09:35:13;10.65;;;5.95;;
35993;SDS011;22066;54.274;18.578;2023-03-01T09:37:39;11.30;;;6.47;;
35993;SDS011;22066;54.274;18.578;2023-03-01T09:40:14;12.57;;;6.30;;
35993;SDS011;22066;54.274;18.578;2023-03-01T09:42:45;11.68;;;6.43;;
35993;SDS011;22066;54.274;18.578;2023-03-01T09:45:16;10.63;;;6.75;;
35993;SDS011;22066;54.274;18.578;2023-03-01T09:47:45;11.75;;;6.57;;
35993;SDS011;22066;54.274;18.578;2023-03-01T09:52:41;10.70;;;6.25;;
35993;SDS011;22066;54.274;18.578;2023-03-01T09:55:09;10.45;;;6.13;;
35993;SDS011;22066;54.274;18.578;2023-03-01T09:57:36;12.30;;;6.32;;
35993;SDS011;22066;54.274;18.578;2023-03-01T10:00:13;12.50;;;7.25;;
35993;SDS011;22066;54.274;18.578;2023-03-01T10:02:43;11.77;;;7.50;;
35993;SDS011;22066;54.274;18.578;2023-03-01T10:07:59;14.25;;;7.03;;
35993;SDS011;22066;54.274;18.578;2023-03-01T10:10:28;15.75;;;6.55;;
35993;SDS011;22066;54.274;18.578;2023-03-01T10:12:58;14.43;;;8.05;;
35993;SDS011;22066;54.274;18.578;2023-03-01T10:20:30;10.40;;;6.55;;
35993;SDS011;22066;54.274;18.578;2023-03-01T10:22:59;11.90;;;7.40;;
35993;SDS011;22066;54.274;18.578;2023-03-01T10:25:33;11.18;;;6.65;;
35993;SDS011;22066;54.274;18.578;2023-03-01T10:28:05;11.80;;;6.80;;
35993;SDS011;22066;54.274;18.578;2023-03-01T10:30:39;12.18;;;6.65;;
35993;SDS011;22066;54.274;18.578;2023-03-01T10:35:47;13.20;;;6.60;;
35993;SDS011;22066;54.274;18.578;2023-03-01T10:38:14;14.82;;;7.70;;
35993;SDS011;22066;54.274;18.578;2023-03-01T10:41:13;11.97;;;7.27;;
35993;SDS011;22066;54.274;18.578;2023-03-01T10:43:45;12.13;;;7.47;;
35993;SDS011;22066;54.274;18.578;2023-03-01T10:46:22;13.13;;;8.13;;
35993;SDS011;22066;54.274;18.578;2023-03-01T10:49:04;12.80;;;7.85;;
35993;SDS011;22066;54.274;18.578;2023-03-01T10:51:31;12.20;;;6.47;;
35993;SDS011;22066;54.274;18.578;2023-03-01T10:53:57;14.82;;;7.78;;
35993;SDS011;22066;54.274;18.578;2023-03-01T10:56:23;12.73;;;7.72;;
35993;SDS011;22066;54.274;18.578;2023-03-01T11:01:26;13.02;;;6.97;;
35993;SDS011;22066;54.274;18.578;2023-03-01T11:06:30;13.63;;;8.25;;
35993;SDS011;22066;54.274;18.578;2023-03-01T11:08:56;9.38;;;5.80;;
35993;SDS011;22066;54.274;18.578;2023-03-01T11:11:31;12.27;;;7.15;;
35993;SDS011;22066;54.274;18.578;2023-03-01T11:14:06;10.20;;;6.72;;
35993;SDS011;22066;54.274;18.578;2023-03-01T11:19:21;12.60;;;7.95;;
35993;SDS011;22066;54.274;18.578;2023-03-01T11:21:53;12.57;;;7.35;;
35993;SDS011;22066;54.274;18.578;2023-03-01T11:24:23;12.05;;;6.95;;
35993;SDS011;22066;54.274;18.578;2023-03-01T11:26:52;12.05;;;6.55;;
35993;SDS011;22066;54.274;18.578;2023-03-01T11:29:30;12.40;;;7.65;;
35993;SDS011;22066;54.274;18.578;2023-03-01T11:31:59;12.48;;;8.25;;
35993;SDS011;22066;54.274;18.578;2023-03-01T11:37:08;11.30;;;7.53;;
35993;SDS011;22066;54.274;18.578;2023-03-01T11:39:42;10.02;;;6.70;;
35993;SDS011;22066;54.274;18.578;2023-03-01T11:42:13;10.32;;;6.68;;
35993;SDS011;22066;54.274;18.578;2023-03-01T11:44:41;10.35;;;7.10;;
35993;SDS011;22066;54.274;18.578;2023-03-01T12:05:20;13.23;;;8.02;;
35993;SDS011;22066;54.274;18.578;2023-03-01T12:10:20;13.35;;;8.23;;
35993;SDS011;22066;54.274;18.578;2023-03-01T12:12:58;16.05;;;8.02;;
35993;SDS011;22066;54.274;18.578;2023-03-01T12:20:33;19.00;;;8.93;;
35993;SDS011;22066;54.274;18.578;2023-03-01T12:25:33;16.00;;;8.77;;
35993;SDS011;22066;54.274;18.578;2023-03-01T12:28:14;17.63;;;9.90;;
35993;SDS011;22066;54.274;18.578;2023-03-01T12:38:31;16.17;;;8.77;;
35993;SDS011;22066;54.274;18.578;2023-03-01T12:48:40;13.32;;;6.88;;
35993;SDS011;22066;54.274;18.578;2023-03-01T12:51:09;10.15;;;6.80;;
35993;SDS011;22066;54.274;18.578;2023-03-01T12:56:09;15.35;;;8.43;;
35993;SDS011;22066;54.274;18.578;2023-03-01T13:01:05;16.45;;;8.18;;
35993;SDS011;22066;54.274;18.578;2023-03-01T13:06:35;14.23;;;8.18;;
35993;SDS011;22066;54.274;18.578;2023-03-01T13:12:00;15.32;;;8.07;;
35993;SDS011;22066;54.274;18.578;2023-03-01T13:16:59;14.32;;;8.68;;
35993;SDS011;22066;54.274;18.578;2023-03-01T13:19:25;15.35;;;8.50;;
35993;SDS011;22066;54.274;18.578;2023-03-01T13:21:54;11.32;;;6.88;;
35993;SDS011;22066;54.274;18.578;2023-03-01T13:29:47;11.73;;;6.88;;
35993;SDS011;22066;54.274;18.578;2023-03-01T13:32:21;13.65;;;7.75;;
35993;SDS011;22066;54.274;18.578;2023-03-01T13:35:41;12.18;;;6.80;;
35993;SDS011;22066;54.274;18.578;2023-03-01T13:37:37;13.95;;;7.78;;
35993;SDS011;22066;54.274;18.578;2023-03-01T13:40:05;12.38;;;7.38;;
35993;SDS011;22066;54.274;18.578;2023-03-01T13:42:33;13.65;;;7.18;;
35993;SDS011;22066;54.274;18.578;2023-03-01T13:45:01;12.07;;;6.82;;
35993;SDS011;22066;54.274;18.578;2023-03-01T13:47:28;12.77;;;7.03;;
35993;SDS011;22066;54.274;18.578;2023-03-01T13:49:57;13.60;;;7.80;;
35993;SDS011;22066;54.274;18.578;2023-03-01T13:55:13;14.25;;;7.43;;
35993;SDS011;22066;54.274;18.578;2023-03-01T13:57:42;17.25;;;7.63;;
35993;SDS011;22066;54.274;18.578;2023-03-01T14:00:24;14.13;;;7.15;;
35993;SDS011;22066;54.274;18.578;2023-03-01T14:05:27;12.77;;;7.22;;
35993;SDS011;22066;54.274;18.578;2023-03-01T14:07:53;11.70;;;6.68;;
35993;SDS011;22066;54.274;18.578;2023-03-01T14:10:19;16.75;;;9.13;;
35993;SDS011;22066;54.274;18.578;2023-03-01T14:15:35;13.57;;;6.90;;
35993;SDS011;22066;54.274;18.578;2023-03-01T14:18:10;15.48;;;8.32;;
35993;SDS011;22066;54.274;18.578;2023-03-01T14:20:41;15.40;;;8.63;;
35993;SDS011;22066;54.274;18.578;2023-03-01T14:23:12;16.90;;;8.27;;
35993;SDS011;22066;54.274;18.578;2023-03-01T14:25:38;13.85;;;7.28;;
35993;SDS011;22066;54.274;18.578;2023-03-01T14:28:28;13.75;;;6.75;;
35993;SDS011;22066;54.274;18.578;2023-03-01T14:30:59;17.33;;;8.30;;
35993;SDS011;22066;54.274;18.578;2023-03-01T14:35:52;19.13;;;7.32;;
35993;SDS011;22066;54.274;18.578;2023-03-01T14:38:22;19.80;;;8.37;;
35993;SDS011;22066;54.274;18.578;2023-03-01T14:40:50;13.77;;;6.00;;
35993;SDS011;22066;54.274;18.578;2023-03-01T14:45:46;15.80;;;6.30;;
35993;SDS011;22066;54.274;18.578;2023-03-01T14:48:13;13.38;;;7.15;;
35993;SDS011;22066;54.274;18.578;2023-03-01T14:50:41;16.23;;;6.82;;
35993;SDS011;22066;54.274;18.578;2023-03-01T14:53:11;14.15;;;6.70;;
35993;SDS011;22066;54.274;18.578;2023-03-01T14:55:42;16.27;;;8.00;;
35993;SDS011;22066;54.274;18.578;2023-03-01T14:58:13;15.48;;;6.93;;
35993;SDS011;22066;54.274;18.578;2023-03-01T15:00:43;13.88;;;6.90;;
35993;SDS011;22066;54.274;18.578;2023-03-01T15:03:13;14.75;;;7.25;;
35993;SDS011;22066;54.274;18.578;2023-03-01T15:05:40;12.43;;;6.13;;
35993;SDS011;22066;54.274;18.578;2023-03-01T15:08:07;14.87;;;7.20;;
35993;SDS011;22066;54.274;18.578;2023-03-01T15:10:54;14.48;;;6.32;;
35993;SDS011;22066;54.274;18.578;2023-03-01T15:13:22;14.88;;;7.03;;
35993;SDS011;22066;54.274;18.578;2023-03-01T15:15:49;17.20;;;8.68;;
35993;SDS011;22066;54.274;18.578;2023-03-01T15:20:42;21.75;;;9.10;;
35993;SDS011;22066;54.274;18.578;2023-03-01T15:23:18;20.40;;;9.25;;
35993;SDS011;22066;54.274;18.578;2023-03-01T15:25:45;27.67;;;9.60;;
35993;SDS011;22066;54.274;18.578;2023-03-01T15:28:12;18.80;;;8.40;;
35993;SDS011;22066;54.274;18.578;2023-03-01T15:30:43;20.85;;;9.48;;
35993;SDS011;22066;54.274;18.578;2023-03-01T15:33:20;20.23;;;9.43;;
35993;SDS011;22066;54.274;18.578;2023-03-01T15:35:48;22.17;;;9.55;;
35993;SDS011;22066;54.274;18.578;2023-03-01T15:38:23;22.25;;;8.88;;
35993;SDS011;22066;54.274;18.578;2023-03-01T15:40:49;22.17;;;9.15;;
35993;SDS011;22066;54.274;18.578;2023-03-01T15:46:00;21.25;;;9.50;;
35993;SDS011;22066;54.274;18.578;2023-03-01T15:48:26;23.85;;;9.68;;
35993;SDS011;22066;54.274;18.578;2023-03-01T15:50:58;20.10;;;9.73;;
35993;SDS011;22066;54.274;18.578;2023-03-01T15:53:26;25.75;;;9.10;;
35993;SDS011;22066;54.274;18.578;2023-03-01T15:55:53;17.80;;;8.65;;
35993;SDS011;22066;54.274;18.578;2023-03-01T15:58:20;20.63;;;9.68;;
35993;SDS011;22066;54.274;18.578;2023-03-01T16:00:47;21.50;;;9.65;;
35993;SDS011;22066;54.274;18.578;2023-03-01T16:03:13;18.27;;;8.75;;
35993;SDS011;22066;54.274;18.578;2023-03-01T16:05:46;20.00;;;8.43;;
35993;SDS011;22066;54.274;18.578;2023-03-01T16:08:12;21.25;;;8.73;;
35993;SDS011;22066;54.274;18.578;2023-03-01T16:10:39;24.20;;;8.80;;
35993;SDS011;22066;54.274;18.578;2023-03-01T16:13:05;22.50;;;8.82;;
35993;SDS011;22066;54.274;18.578;2023-03-01T16:15:32;19.40;;;8.23;;
35993;SDS011;22066;54.274;18.578;2023-03-01T16:18:03;22.37;;;9.43;;
35993;SDS011;22066;54.274;18.578;2023-03-01T16:20:35;23.17;;;9.20;;
35993;SDS011;22066;54.274;18.578;2023-03-01T16:23:02;20.60;;;9.23;;
35993;SDS011;22066;54.274;18.578;2023-03-01T16:25:29;19.23;;;8.27;;